sensor_id;sensor_type;location;lat;lon;timestamp;P1;durP1;ratioP1;P2;durP2;ratioP2
48875;SDS011;34689;51.644;5.618;2023-04-03T00:01:27;1.80;;;1.05;;
48875;SDS011;34689;51.644;5.618;2023-04-03T00:03:53;0.90;;;0.80;;
48875;SDS011;34689;51.644;5.618;2023-04-03T00:06:19;1.05;;;0.93;;
48875;SDS011;34689;51.644;5.618;2023-04-03T00:08:45;1.52;;;0.93;;
48875;SDS011;34689;51.644;5.618;2023-04-03T00:11:11;1.40;;;0.85;;
48875;SDS011;34689;51.644;5.618;2023-04-03T00:13:37;3.47;;;1.60;;
48875;SDS011;34689;51.644;5.618;2023-04-03T00:16:03;1.45;;;0.90;;
48875;SDS011;34689;51.644;5.618;2023-04-03T00:18:30;3.20;;;1.48;;
48875;SDS011;34689;51.644;5.618;2023-04-03T00:20:56;1.92;;;1.10;;
48875;SDS011;34689;51.644;5.618;2023-04-03T00:23:22;1.67;;;0.98;;
48875;SDS011;34689;51.644;5.618;2023-04-03T00:25:48;2.42;;;1.55;;
48875;SDS011;34689;51.644;5.618;2023-04-03T00:28:15;2.25;;;1.30;;
48875;SDS011;34689;51.644;5.618;2023-04-03T00:30:41;1.27;;;0.80;;
48875;SDS011;34689;51.644;5.618;2023-04-03T00:33:07;1.33;;;0.90;;
48875;SDS011;34689;51.644;5.618;2023-04-03T00:35:36;1.88;;;1.17;;
48875;SDS011;34689;51.644;5.618;2023-04-03T00:38:01;2.75;;;1.60;;
48875;SDS011;34689;51.644;5.618;2023-04-03T00:40:27;2.22;;;1.10;;
48875;SDS011;34689;51.644;5.618;2023-04-03T00:42:58;1.40;;;0.98;;
48875;SDS011;34689;51.644;5.618;2023-04-03T00:45:29;5.30;;;1.30;;
48875;SDS011;34689;51.644;5.618;2023-04-03T00:47:57;1.63;;;1.10;;
48875;SDS011;34689;51.644;5.618;2023-04-03T00:50:26;2.30;;;1.35;;
48875;SDS011;34689;51.644;5.618;2023-04-03T00:52:53;1.60;;;1.00;;
48875;SDS011;34689;51.644;5.618;2023-04-03T00:55:20;1.55;;;1.00;;
48875;SDS011;34689;51.644;5.618;2023-04-03T00:57:46;2.78;;;1.00;;
48875;SDS011;34689;51.644;5.618;2023-04-03T01:00:14;5.53;;;1.45;;
48875;SDS011;34689;51.644;5.618;2023-04-03T01:02:42;3.05;;;1.65;;
48875;SDS011;34689;51.644;5.618;2023-04-03T01:05:08;1.38;;;0.93;;
48875;SDS011;34689;51.644;5.618;2023-04-03T01:07:34;3.67;;;1.63;;
48875;SDS011;34689;51.644;5.618;2023-04-03T01:10:04;2.88;;;1.17;;
48875;SDS011;34689;51.644;5.618;2023-04-03T01:12:34;2.05;;;1.02;;
48875;SDS011;34689;51.644;5.618;2023-04-03T01:15:06;1.70;;;1.08;;
48875;SDS011;34689;51.644;5.618;2023-04-03T01:17:36;3.00;;;1.50;;
48875;SDS011;34689;51.644;5.618;2023-04-03T01:25:21;1.73;;;1.20;;
48875;SDS011;34689;51.644;5.618;2023-04-03T01:27:47;0.85;;;0.80;;
48875;SDS011;34689;51.644;5.618;2023-04-03T01:30:13;1.73;;;1.20;;
48875;SDS011;34689;51.644;5.618;2023-04-03T01:32:41;2.85;;;1.10;;
48875;SDS011;34689;51.644;5.618;2023-04-03T01:35:08;3.13;;;1.27;;
48875;SDS011;34689;51.644;5.618;2023-04-03T01:37:34;3.95;;;1.98;;
48875;SDS011;34689;51.644;5.618;2023-04-03T01:40:00;2.22;;;1.05;;
48875;SDS011;34689;51.644;5.618;2023-04-03T01:42:26;1.02;;;0.70;;
48875;SDS011;34689;51.644;5.618;2023-04-03T01:44:51;1.50;;;0.90;;
48875;SDS011;34689;51.644;5.618;2023-04-03T01:47:17;2.53;;;1.35;;
48875;SDS011;34689;51.644;5.618;2023-04-03T01:49:43;3.80;;;1.20;;
48875;SDS011;34689;51.644;5.618;2023-04-03T01:52:08;1.48;;;0.95;;
48875;SDS011;34689;51.644;5.618;2023-04-03T01:54:34;2.13;;;1.40;;
48875;SDS011;34689;51.644;5.618;2023-04-03T01:57:00;1.63;;;1.20;;
48875;SDS011;34689;51.644;5.618;2023-04-03T01:59:25;2.05;;;1.02;;
48875;SDS011;34689;51.644;5.618;2023-04-03T02:01:51;1.55;;;0.88;;
48875;SDS011;34689;51.644;5.618;2023-04-03T02:04:17;3.15;;;1.38;;
48875;SDS011;34689;51.644;5.618;2023-04-03T02:06:42;2.50;;;1.23;;
48875;SDS011;34689;51.644;5.618;2023-04-03T02:09:08;3.03;;;1.05;;
48875;SDS011;34689;51.644;5.618;2023-04-03T02:11:34;1.00;;;0.80;;
48875;SDS011;34689;51.644;5.618;2023-04-03T02:14:00;2.97;;;1.40;;
48875;SDS011;34689;51.644;5.618;2023-04-03T02:16:26;0.95;;;0.60;;
48875;SDS011;34689;51.644;5.618;2023-04-03T02:18:52;2.58;;;1.00;;
48875;SDS011;34689;51.644;5.618;2023-04-03T02:21:17;2.80;;;0.93;;
48875;SDS011;34689;51.644;5.618;2023-04-03T02:23:43;3.63;;;0.98;;
48875;SDS011;34689;51.644;5.618;2023-04-03T02:26:10;1.02;;;0.60;;
48875;SDS011;34689;51.644;5.618;2023-04-03T02:28:37;3.75;;;1.65;;
48875;SDS011;34689;51.644;5.618;2023-04-03T02:31:03;2.00;;;0.95;;
48875;SDS011;34689;51.644;5.618;2023-04-03T02:33:31;2.15;;;1.20;;
48875;SDS011;34689;51.644;5.618;2023-04-03T02:35:57;1.40;;;0.88;;
48875;SDS011;34689;51.644;5.618;2023-04-03T02:38:23;4.38;;;1.27;;
48875;SDS011;34689;51.644;5.618;2023-04-03T02:40:49;3.17;;;1.20;;
48875;SDS011;34689;51.644;5.618;2023-04-03T02:43:16;1.85;;;0.80;;
48875;SDS011;34689;51.644;5.618;2023-04-03T02:45:42;3.05;;;1.17;;
48875;SDS011;34689;51.644;5.618;2023-04-03T02:48:07;2.28;;;1.15;;
48875;SDS011;34689;51.644;5.618;2023-04-03T02:50:33;2.88;;;1.05;;
48875;SDS011;34689;51.644;5.618;2023-04-03T02:52:59;1.20;;;0.90;;
48875;SDS011;34689;51.644;5.618;2023-04-03T02:55:25;2.42;;;0.90;;
48875;SDS011;34689;51.644;5.618;2023-04-03T02:57:51;1.63;;;0.80;;
48875;SDS011;34689;51.644;5.618;2023-04-03T03:00:16;2.85;;;1.00;;
48875;SDS011;34689;51.644;5.618;2023-04-03T03:02:42;0.90;;;0.60;;
48875;SDS011;34689;51.644;5.618;2023-04-03T03:05:08;3.38;;;1.05;;
48875;SDS011;34689;51.644;5.618;2023-04-03T03:07:34;3.63;;;1.05;;
48875;SDS011;34689;51.644;5.618;2023-04-03T03:09:59;2.83;;;1.10;;
48875;SDS011;34689;51.644;5.618;2023-04-03T03:12:25;2.30;;;0.60;;
48875;SDS011;34689;51.644;5.618;2023-04-03T03:14:51;2.17;;;0.80;;
48875;SDS011;34689;51.644;5.618;2023-04-03T03:17:17;2.05;;;0.73;;
48875;SDS011;34689;51.644;5.618;2023-04-03T03:19:43;2.22;;;0.80;;
48875;SDS011;34689;51.644;5.618;2023-04-03T03:22:10;2.05;;;0.73;;
48875;SDS011;34689;51.644;5.618;2023-04-03T03:24:36;1.00;;;0.68;;
48875;SDS011;34689;51.644;5.618;2023-04-03T03:27:01;3.45;;;0.95;;
48875;SDS011;34689;51.644;5.618;2023-04-03T03:29:27;1.55;;;0.75;;
48875;SDS011;34689;51.644;5.618;2023-04-03T03:31:53;1.15;;;0.50;;
48875;SDS011;34689;51.644;5.618;2023-04-03T03:34:18;2.03;;;0.50;;
48875;SDS011;34689;51.644;5.618;2023-04-03T03:36:44;0.82;;;0.30;;
48875;SDS011;34689;51.644;5.618;2023-04-03T03:39:10;1.63;;;0.60;;
48875;SDS011;34689;51.644;5.618;2023-04-03T03:41:36;2.70;;;1.00;;
48875;SDS011;34689;51.644;5.618;2023-04-03T03:44:01;1.60;;;0.75;;
48875;SDS011;34689;51.644;5.618;2023-04-03T03:46:27;2.83;;;1.02;;
48875;SDS011;34689;51.644;5.618;2023-04-03T03:48:53;0.95;;;0.60;;
48875;SDS011;34689;51.644;5.618;2023-04-03T03:51:18;2.92;;;0.68;;
48875;SDS011;34689;51.644;5.618;2023-04-03T03:53:44;1.10;;;0.68;;
48875;SDS011;34689;51.644;5.618;2023-04-03T03:56:10;1.27;;;0.55;;
48875;SDS011;34689;51.644;5.618;2023-04-03T03:58:36;2.20;;;0.90;;
48875;SDS011;34689;51.644;5.618;2023-04-03T04:01:02;0.52;;;0.40;;
48875;SDS011;34689;51.644;5.618;2023-04-03T04:03:30;1.75;;;1.00;;
48875;SDS011;34689;51.644;5.618;2023-04-03T04:05:56;2.90;;;0.77;;
48875;SDS011;34689;51.644;5.618;2023-04-03T04:08:22;2.13;;;0.60;;
48875;SDS011;34689;51.644;5.618;2023-04-03T04:10:48;3.25;;;0.57;;
48875;SDS011;34689;51.644;5.618;2023-04-03T04:13:13;2.90;;;1.27;;
48875;SDS011;34689;51.644;5.618;2023-04-03T04:15:39;1.05;;;0.70;;
48875;SDS011;34689;51.644;5.618;2023-04-03T04:18:05;4.47;;;1.23;;
48875;SDS011;34689;51.644;5.618;2023-04-03T04:20:31;1.98;;;0.70;;
48875;SDS011;34689;51.644;5.618;2023-04-03T04:22:56;3.92;;;0.70;;
48875;SDS011;34689;51.644;5.618;2023-04-03T04:25:22;2.47;;;1.02;;
48875;SDS011;34689;51.644;5.618;2023-04-03T04:27:48;2.13;;;0.73;;
48875;SDS011;34689;51.644;5.618;2023-04-03T04:30:13;3.55;;;0.68;;
48875;SDS011;34689;51.644;5.618;2023-04-03T04:32:39;3.63;;;0.93;;
48875;SDS011;34689;51.644;5.618;2023-04-03T04:35:05;3.47;;;0.90;;
48875;SDS011;34689;51.644;5.618;2023-04-03T04:37:31;2.13;;;0.55;;
48875;SDS011;34689;51.644;5.618;2023-04-03T04:39:57;1.27;;;0.77;;
48875;SDS011;34689;51.644;5.618;2023-04-03T04:42:23;4.30;;;0.73;;
48875;SDS011;34689;51.644;5.618;2023-04-03T04:44:49;1.13;;;0.60;;
48875;SDS011;34689;51.644;5.618;2023-04-03T04:47:15;2.15;;;0.70;;
48875;SDS011;34689;51.644;5.618;2023-04-03T04:49:41;3.05;;;0.73;;
48875;SDS011;34689;51.644;5.618;2023-04-03T04:52:07;0.82;;;0.50;;
48875;SDS011;34689;51.644;5.618;2023-04-03T04:54:32;2.83;;;0.65;;
48875;SDS011;34689;51.644;5.618;2023-04-03T04:56:58;1.00;;;0.50;;
48875;SDS011;34689;51.644;5.618;2023-04-03T04:59:24;2.58;;;0.75;;
48875;SDS011;34689;51.644;5.618;2023-04-03T05:01:50;2.75;;;0.65;;
48875;SDS011;34689;51.644;5.618;2023-04-03T05:04:16;2.40;;;0.50;;
48875;SDS011;34689;51.644;5.618;2023-04-03T05:06:41;3.00;;;0.82;;
48875;SDS011;34689;51.644;5.618;2023-04-03T05:09:07;1.33;;;0.60;;
48875;SDS011;34689;51.644;5.618;2023-04-03T05:11:34;1.52;;;0.50;;
48875;SDS011;34689;51.644;5.618;2023-04-03T05:14:00;2.13;;;0.60;;
48875;SDS011;34689;51.644;5.618;2023-04-03T05:16:26;2.08;;;0.65;;
48875;SDS011;34689;51.644;5.618;2023-04-03T05:18:52;3.10;;;1.65;;
48875;SDS011;34689;51.644;5.618;2023-04-03T05:21:18;2.50;;;0.75;;
48875;SDS011;34689;51.644;5.618;2023-04-03T05:23:43;3.80;;;0.90;;
48875;SDS011;34689;51.644;5.618;2023-04-03T05:26:09;1.65;;;0.52;;
48875;SDS011;34689;51.644;5.618;2023-04-03T05:28:35;1.10;;;0.73;;
48875;SDS011;34689;51.644;5.618;2023-04-03T05:31:01;4.97;;;0.98;;
48875;SDS011;34689;51.644;5.618;2023-04-03T05:33:27;1.58;;;0.75;;
48875;SDS011;34689;51.644;5.618;2023-04-03T05:35:53;1.67;;;0.70;;
48875;SDS011;34689;51.644;5.618;2023-04-03T05:38:19;1.60;;;0.75;;
48875;SDS011;34689;51.644;5.618;2023-04-03T05:40:45;1.00;;;0.63;;
48875;SDS011;34689;51.644;5.618;2023-04-03T05:43:11;2.38;;;0.88;;
48875;SDS011;34689;51.644;5.618;2023-04-03T05:45:37;2.10;;;0.60;;
48875;SDS011;34689;51.644;5.618;2023-04-03T05:48:02;5.75;;;0.73;;
48875;SDS011;34689;51.644;5.618;2023-04-03T05:50:28;4.07;;;1.10;;
48875;SDS011;34689;51.644;5.618;2023-04-03T05:52:55;6.68;;;1.02;;
48875;SDS011;34689;51.644;5.618;2023-04-03T05:55:23;3.20;;;0.90;;
48875;SDS011;34689;51.644;5.618;2023-04-03T05:57:49;2.15;;;0.70;;
48875;SDS011;34689;51.644;5.618;2023-04-03T06:00:15;1.48;;;0.82;;
48875;SDS011;34689;51.644;5.618;2023-04-03T06:02:41;3.97;;;0.82;;
48875;SDS011;34689;51.644;5.618;2023-04-03T06:05:08;2.80;;;0.75;;
48875;SDS011;34689;51.644;5.618;2023-04-03T06:07:36;2.72;;;0.98;;
48875;SDS011;34689;51.644;5.618;2023-04-03T06:10:02;2.80;;;0.70;;
48875;SDS011;34689;51.644;5.618;2023-04-03T06:12:29;2.13;;;0.75;;
48875;SDS011;34689;51.644;5.618;2023-04-03T06:14:54;2.90;;;0.65;;
48875;SDS011;34689;51.644;5.618;2023-04-03T06:17:20;2.17;;;0.80;;
48875;SDS011;34689;51.644;5.618;2023-04-03T06:19:47;1.38;;;0.52;;
48875;SDS011;34689;51.644;5.618;2023-04-03T06:22:13;2.70;;;0.95;;
48875;SDS011;34689;51.644;5.618;2023-04-03T06:24:39;7.00;;;1.00;;
48875;SDS011;34689;51.644;5.618;2023-04-03T06:27:05;1.75;;;0.55;;
48875;SDS011;34689;51.644;5.618;2023-04-03T06:29:31;1.98;;;0.80;;
48875;SDS011;34689;51.644;5.618;2023-04-03T06:31:56;1.48;;;0.63;;
48875;SDS011;34689;51.644;5.618;2023-04-03T06:34:22;3.60;;;0.77;;
48875;SDS011;34689;51.644;5.618;2023-04-03T06:36:48;1.63;;;0.38;;
48875;SDS011;34689;51.644;5.618;2023-04-03T06:39:16;2.97;;;0.75;;
48875;SDS011;34689;51.644;5.618;2023-04-03T06:41:45;3.17;;;0.50;;
48875;SDS011;34689;51.644;5.618;2023-04-03T06:44:11;1.75;;;0.85;;
48875;SDS011;34689;51.644;5.618;2023-04-03T06:46:38;2.20;;;0.65;;
48875;SDS011;34689;51.644;5.618;2023-04-03T06:49:04;3.60;;;0.93;;
48875;SDS011;34689;51.644;5.618;2023-04-03T06:51:32;2.22;;;0.73;;
48875;SDS011;34689;51.644;5.618;2023-04-03T06:53:59;2.30;;;0.50;;
48875;SDS011;34689;51.644;5.618;2023-04-03T06:56:25;2.85;;;1.00;;
48875;SDS011;34689;51.644;5.618;2023-04-03T06:58:52;1.92;;;0.50;;
48875;SDS011;34689;51.644;5.618;2023-04-03T07:01:24;1.30;;;0.60;;
48875;SDS011;34689;51.644;5.618;2023-04-03T07:03:52;2.35;;;0.57;;
48875;SDS011;34689;51.644;5.618;2023-04-03T07:06:19;0.93;;;0.60;;
48875;SDS011;34689;51.644;5.618;2023-04-03T07:08:45;2.42;;;0.85;;
48875;SDS011;34689;51.644;5.618;2023-04-03T07:11:13;1.80;;;0.82;;
48875;SDS011;34689;51.644;5.618;2023-04-03T07:13:39;3.60;;;0.77;;
48875;SDS011;34689;51.644;5.618;2023-04-03T07:16:05;0.98;;;0.50;;
48875;SDS011;34689;51.644;5.618;2023-04-03T07:18:32;4.68;;;0.88;;
48875;SDS011;34689;51.644;5.618;2023-04-03T07:20:58;2.88;;;0.50;;
48875;SDS011;34689;51.644;5.618;2023-04-03T07:23:24;2.08;;;0.80;;
48875;SDS011;34689;51.644;5.618;2023-04-03T07:25:50;1.38;;;0.95;;
48875;SDS011;34689;51.644;5.618;2023-04-03T07:28:17;3.85;;;0.80;;
48875;SDS011;34689;51.644;5.618;2023-04-03T07:30:44;1.17;;;0.32;;
48875;SDS011;34689;51.644;5.618;2023-04-03T07:33:12;1.17;;;0.45;;
48875;SDS011;34689;51.644;5.618;2023-04-03T07:35:39;2.97;;;0.77;;
48875;SDS011;34689;51.644;5.618;2023-04-03T07:38:06;2.28;;;0.88;;
48875;SDS011;34689;51.644;5.618;2023-04-03T07:40:32;3.42;;;0.93;;
48875;SDS011;34689;51.644;5.618;2023-04-03T07:42:58;2.15;;;0.70;;
48875;SDS011;34689;51.644;5.618;2023-04-03T07:45:24;1.95;;;0.50;;
48875;SDS011;34689;51.644;5.618;2023-04-03T07:47:50;2.17;;;1.17;;
48875;SDS011;34689;51.644;5.618;2023-04-03T07:50:17;1.40;;;0.52;;
48875;SDS011;34689;51.644;5.618;2023-04-03T07:52:43;2.05;;;0.80;;
48875;SDS011;34689;51.644;5.618;2023-04-03T07:55:09;1.20;;;0.60;;
48875;SDS011;34689;51.644;5.618;2023-04-03T07:57:35;0.95;;;0.40;;
48875;SDS011;34689;51.644;5.618;2023-04-03T08:00:03;0.77;;;0.50;;
48875;SDS011;34689;51.644;5.618;2023-04-03T08:02:29;1.20;;;0.68;;
48875;SDS011;34689;51.644;5.618;2023-04-03T08:04:57;1.70;;;0.60;;
48875;SDS011;34689;51.644;5.618;2023-04-03T08:07:23;5.20;;;0.93;;
48875;SDS011;34689;51.644;5.618;2023-04-03T08:09:50;3.22;;;0.80;;
48875;SDS011;34689;51.644;5.618;2023-04-03T08:12:16;2.33;;;0.95;;
48875;SDS011;34689;51.644;5.618;2023-04-03T08:14:42;1.20;;;0.60;;
48875;SDS011;34689;51.644;5.618;2023-04-03T08:17:08;1.98;;;0.52;;
48875;SDS011;34689;51.644;5.618;2023-04-03T08:19:36;3.08;;;0.88;;
48875;SDS011;34689;51.644;5.618;2023-04-03T08:22:03;4.65;;;1.13;;
48875;SDS011;34689;51.644;5.618;2023-04-03T08:24:29;3.50;;;0.47;;
48875;SDS011;34689;51.644;5.618;2023-04-03T08:26:56;2.58;;;0.70;;
48875;SDS011;34689;51.644;5.618;2023-04-03T08:29:22;1.27;;;0.50;;
48875;SDS011;34689;51.644;5.618;2023-04-03T08:31:48;2.55;;;0.80;;
48875;SDS011;34689;51.644;5.618;2023-04-03T08:34:15;2.40;;;0.70;;
48875;SDS011;34689;51.644;5.618;2023-04-03T08:36:41;3.00;;;0.47;;
48875;SDS011;34689;51.644;5.618;2023-04-03T08:39:08;1.58;;;0.60;;
48875;SDS011;34689;51.644;5.618;2023-04-03T08:41:36;2.90;;;0.60;;
48875;SDS011;34689;51.644;5.618;2023-04-03T08:47:01;1.65;;;0.60;;
48875;SDS011;34689;51.644;5.618;2023-04-03T08:52:58;1.42;;;0.43;;
48875;SDS011;34689;51.644;5.618;2023-04-03T08:55:20;0.63;;;0.32;;
48875;SDS011;34689;51.644;5.618;2023-04-03T08:58:01;1.08;;;0.80;;
48875;SDS011;34689;51.644;5.618;2023-04-03T09:01:00;0.82;;;0.40;;
48875;SDS011;34689;51.644;5.618;2023-04-03T09:03:30;1.33;;;0.32;;
48875;SDS011;34689;51.644;5.618;2023-04-03T09:21:42;1.17;;;0.30;;
48875;SDS011;34689;51.644;5.618;2023-04-03T09:24:12;0.20;;;0.20;;
48875;SDS011;34689;51.644;5.618;2023-04-03T09:29:25;1.38;;;0.50;;
48875;SDS011;34689;51.644;5.618;2023-04-03T09:31:59;1.83;;;0.20;;
48875;SDS011;34689;51.644;5.618;2023-04-03T09:34:27;2.22;;;0.70;;
48875;SDS011;34689;51.644;5.618;2023-04-03T09:37:00;1.50;;;0.35;;
48875;SDS011;34689;51.644;5.618;2023-04-03T09:39:52;1.15;;;0.32;;
48875;SDS011;34689;51.644;5.618;2023-04-03T09:42:24;0.85;;;0.28;;
48875;SDS011;34689;51.644;5.618;2023-04-03T09:44:58;0.32;;;0.13;;
48875;SDS011;34689;51.644;5.618;2023-04-03T09:47:32;3.83;;;0.40;;
48875;SDS011;34689;51.644;5.618;2023-04-03T09:50:18;1.85;;;0.20;;
48875;SDS011;34689;51.644;5.618;2023-04-03T09:52:49;1.15;;;0.30;;
48875;SDS011;34689;51.644;5.618;2023-04-03T09:55:20;0.20;;;0.20;;
48875;SDS011;34689;51.644;5.618;2023-04-03T09:58:01;1.40;;;0.40;;
48875;SDS011;34689;51.644;5.618;2023-04-03T10:00:53;1.00;;;0.20;;
48875;SDS011;34689;51.644;5.618;2023-04-03T10:03:33;0.20;;;0.10;;
48875;SDS011;34689;51.644;5.618;2023-04-03T10:06:01;2.60;;;0.20;;
48875;SDS011;34689;51.644;5.618;2023-04-03T10:08:58;2.35;;;0.20;;
48875;SDS011;34689;51.644;5.618;2023-04-03T10:11:26;0.22;;;0.10;;
48875;SDS011;34689;51.644;5.618;2023-04-03T10:13:53;0.30;;;0.10;;
48875;SDS011;34689;51.644;5.618;2023-04-03T10:16:38;1.55;;;0.20;;
48875;SDS011;34689;51.644;5.618;2023-04-03T10:22:20;0.68;;;0.10;;
48875;SDS011;34689;51.644;5.618;2023-04-03T10:25:09;0.43;;;0.10;;
48875;SDS011;34689;51.644;5.618;2023-04-03T10:27:59;1.55;;;0.30;;
48875;SDS011;34689;51.644;5.618;2023-04-03T10:35:53;1.20;;;0.10;;
48875;SDS011;34689;51.644;5.618;2023-04-03T10:44:08;0.55;;;0.10;;
48875;SDS011;34689;51.644;5.618;2023-04-03T10:46:47;0.43;;;0.10;;
48875;SDS011;34689;51.644;5.618;2023-04-03T10:57:39;0.57;;;0.20;;
48875;SDS011;34689;51.644;5.618;2023-04-03T11:00:07;0.60;;;0.10;;
48875;SDS011;34689;51.644;5.618;2023-04-03T11:02:52;0.70;;;0.32;;
48875;SDS011;34689;51.644;5.618;2023-04-03T11:05:25;0.90;;;0.17;;
48875;SDS011;34689;51.644;5.618;2023-04-03T11:08:10;0.98;;;0.38;;
48875;SDS011;34689;51.644;5.618;2023-04-03T11:10:49;0.20;;;0.10;;
48875;SDS011;34689;51.644;5.618;2023-04-03T11:13:24;0.20;;;0.10;;
48875;SDS011;34689;51.644;5.618;2023-04-03T11:15:57;0.47;;;0.20;;
48875;SDS011;34689;51.644;5.618;2023-04-03T11:18:29;2.35;;;0.40;;
48875;SDS011;34689;51.644;5.618;2023-04-03T11:21:07;0.40;;;0.30;;
48875;SDS011;34689;51.644;5.618;2023-04-03T11:23:42;1.98;;;0.25;;
48875;SDS011;34689;51.644;5.618;2023-04-03T11:26:12;0.70;;;0.35;;
48875;SDS011;34689;51.644;5.618;2023-04-03T11:28:40;1.20;;;0.30;;
48875;SDS011;34689;51.644;5.618;2023-04-03T11:31:15;0.90;;;0.30;;
48875;SDS011;34689;51.644;5.618;2023-04-03T11:34:04;0.63;;;0.20;;
48875;SDS011;34689;51.644;5.618;2023-04-03T11:39:20;0.55;;;0.25;;
48875;SDS011;34689;51.644;5.618;2023-04-03T11:41:53;0.68;;;0.20;;
48875;SDS011;34689;51.644;5.618;2023-04-03T11:44:35;0.65;;;0.40;;
48875;SDS011;34689;51.644;5.618;2023-04-03T11:47:05;4.28;;;0.30;;
48875;SDS011;34689;51.644;5.618;2023-04-03T12:05:51;1.20;;;0.30;;
48875;SDS011;34689;51.644;5.618;2023-04-03T12:21:14;1.00;;;0.30;;
48875;SDS011;34689;51.644;5.618;2023-04-03T12:24:44;1.60;;;0.65;;
48875;SDS011;34689;51.644;5.618;2023-04-03T12:26:46;1.05;;;0.30;;
48875;SDS011;34689;51.644;5.618;2023-04-03T12:29:43;1.17;;;0.38;;
48875;SDS011;34689;51.644;5.618;2023-04-03T12:48:36;1.17;;;0.38;;
48875;SDS011;34689;51.644;5.618;2023-04-03T12:51:06;0.65;;;0.30;;
48875;SDS011;34689;51.644;5.618;2023-04-03T12:53:33;0.38;;;0.32;;
48875;SDS011;34689;51.644;5.618;2023-04-03T12:58:48;0.22;;;0.10;;
48875;SDS011;34689;51.644;5.618;2023-04-03T13:01:23;1.27;;;0.30;;
48875;SDS011;34689;51.644;5.618;2023-04-03T13:03:56;0.80;;;0.25;;
48875;SDS011;34689;51.644;5.618;2023-04-03T13:06:27;0.45;;;0.30;;
48875;SDS011;34689;51.644;5.618;2023-04-03T13:08:58;1.42;;;0.45;;
48875;SDS011;34689;51.644;5.618;2023-04-03T13:11:39;1.20;;;0.32;;
48875;SDS011;34689;51.644;5.618;2023-04-03T13:14:20;0.60;;;0.30;;
48875;SDS011;34689;51.644;5.618;2023-04-03T13:16:54;0.93;;;0.32;;
48875;SDS011;34689;51.644;5.618;2023-04-03T13:19:24;0.88;;;0.43;;
48875;SDS011;34689;51.644;5.618;2023-04-03T13:22:34;0.77;;;0.40;;
48875;SDS011;34689;51.644;5.618;2023-04-03T13:25:04;1.05;;;0.68;;
48875;SDS011;34689;51.644;5.618;2023-04-03T13:27:33;0.77;;;0.25;;
48875;SDS011;34689;51.644;5.618;2023-04-03T13:30:01;1.55;;;0.40;;
48875;SDS011;34689;51.644;5.618;2023-04-03T13:32:28;0.60;;;0.43;;
48875;SDS011;34689;51.644;5.618;2023-04-03T13:34:56;0.50;;;0.30;;
48875;SDS011;34689;51.644;5.618;2023-04-03T13:37:26;1.10;;;0.50;;
48875;SDS011;34689;51.644;5.618;2023-04-03T13:39:59;1.30;;;0.35;;
48875;SDS011;34689;51.644;5.618;2023-04-03T13:42:37;0.30;;;0.20;;
48875;SDS011;34689;51.644;5.618;2023-04-03T13:45:20;1.63;;;0.30;;
48875;SDS011;34689;51.644;5.618;2023-04-03T13:47:52;0.38;;;0.30;;
48875;SDS011;34689;51.644;5.618;2023-04-03T13:50:32;2.05;;;0.47;;
48875;SDS011;34689;51.644;5.618;2023-04-03T13:53:02;1.42;;;0.70;;
48875;SDS011;34689;51.644;5.618;2023-04-03T13:55:37;1.65;;;0.60;;
48875;SDS011;34689;51.644;5.618;2023-04-03T13:58:22;0.90;;;0.43;;
48875;SDS011;34689;51.644;5.618;2023-04-03T14:03:30;0.73;;;0.40;;
48875;SDS011;34689;51.644;5.618;2023-04-03T14:06:06;0.30;;;0.30;;
48875;SDS011;34689;51.644;5.618;2023-04-03T14:08:36;1.25;;;0.30;;
48875;SDS011;34689;51.644;5.618;2023-04-03T14:11:02;1.30;;;0.40;;
48875;SDS011;34689;51.644;5.618;2023-04-03T14:13:29;0.75;;;0.30;;
48875;SDS011;34689;51.644;5.618;2023-04-03T14:15:55;0.57;;;0.22;;
48875;SDS011;34689;51.644;5.618;2023-04-03T14:18:25;1.25;;;0.40;;
48875;SDS011;34689;51.644;5.618;2023-04-03T14:20:51;0.60;;;0.40;;
48875;SDS011;34689;51.644;5.618;2023-04-03T14:23:20;2.40;;;0.90;;
48875;SDS011;34689;51.644;5.618;2023-04-03T14:25:46;2.92;;;0.50;;
48875;SDS011;34689;51.644;5.618;2023-04-03T14:28:16;1.85;;;0.55;;
48875;SDS011;34689;51.644;5.618;2023-04-03T14:30:45;1.02;;;0.85;;
48875;SDS011;34689;51.644;5.618;2023-04-03T14:33:13;0.50;;;0.35;;
48875;SDS011;34689;51.644;5.618;2023-04-03T14:35:43;1.83;;;0.88;;
48875;SDS011;34689;51.644;5.618;2023-04-03T14:38:24;4.97;;;0.63;;
48875;SDS011;34689;51.644;5.618;2023-04-03T14:40:53;1.45;;;0.45;;
48875;SDS011;34689;51.644;5.618;2023-04-03T14:43:19;0.82;;;0.30;;
48875;SDS011;34689;51.644;5.618;2023-04-03T14:45:48;0.50;;;0.30;;
48875;SDS011;34689;51.644;5.618;2023-04-03T14:48:17;0.68;;;0.30;;
48875;SDS011;34689;51.644;5.618;2023-04-03T14:50:45;0.25;;;0.25;;
48875;SDS011;34689;51.644;5.618;2023-04-03T14:53:12;0.50;;;0.30;;
48875;SDS011;34689;51.644;5.618;2023-04-03T14:55:46;3.45;;;0.40;;
48875;SDS011;34689;51.644;5.618;2023-04-03T14:58:15;0.52;;;0.15;;
48875;SDS011;34689;51.644;5.618;2023-04-03T15:00:43;1.13;;;0.35;;
48875;SDS011;34689;51.644;5.618;2023-04-03T15:03:14;0.65;;;0.40;;
48875;SDS011;34689;51.644;5.618;2023-04-03T15:05:42;0.70;;;0.50;;
48875;SDS011;34689;51.644;5.618;2023-04-03T15:08:25;0.77;;;0.30;;
48875;SDS011;34689;51.644;5.618;2023-04-03T15:10:54;2.30;;;1.05;;
48875;SDS011;34689;51.644;5.618;2023-04-03T15:13:21;1.75;;;0.38;;
48875;SDS011;34689;51.644;5.618;2023-04-03T15:15:48;3.50;;;0.50;;
48875;SDS011;34689;51.644;5.618;2023-04-03T15:18:18;2.55;;;0.60;;
48875;SDS011;34689;51.644;5.618;2023-04-03T15:20:46;1.15;;;0.28;;
48875;SDS011;34689;51.644;5.618;2023-04-03T15:23:13;0.60;;;0.30;;
48875;SDS011;34689;51.644;5.618;2023-04-03T15:25:41;1.40;;;0.40;;
48875;SDS011;34689;51.644;5.618;2023-04-03T15:28:22;0.68;;;0.20;;
48875;SDS011;34689;51.644;5.618;2023-04-03T15:30:56;1.00;;;0.30;;
48875;SDS011;34689;51.644;5.618;2023-04-03T15:33:22;0.98;;;0.77;;
48875;SDS011;34689;51.644;5.618;2023-04-03T15:35:48;0.65;;;0.50;;
48875;SDS011;34689;51.644;5.618;2023-04-03T15:38:14;1.75;;;0.35;;
48875;SDS011;34689;51.644;5.618;2023-04-03T15:40:40;0.90;;;0.40;;
48875;SDS011;34689;51.644;5.618;2023-04-03T15:43:07;1.63;;;0.20;;
48875;SDS011;34689;51.644;5.618;2023-04-03T15:45:33;0.57;;;0.30;;
48875;SDS011;34689;51.644;5.618;2023-04-03T15:48:01;2.10;;;0.45;;
48875;SDS011;34689;51.644;5.618;2023-04-03T15:50:28;2.30;;;0.30;;
48875;SDS011;34689;51.644;5.618;2023-04-03T15:52:57;0.85;;;0.38;;
48875;SDS011;34689;51.644;5.618;2023-04-03T15:55:26;1.88;;;0.65;;
48875;SDS011;34689;51.644;5.618;2023-04-03T15:57:56;0.90;;;0.50;;
48875;SDS011;34689;51.644;5.618;2023-04-03T16:00:22;0.20;;;0.17;;
48875;SDS011;34689;51.644;5.618;2023-04-03T16:02:50;3.08;;;0.50;;
48875;SDS011;34689;51.644;5.618;2023-04-03T16:05:18;2.88;;;0.55;;
48875;SDS011;34689;51.644;5.618;2023-04-03T16:07:45;0.47;;;0.30;;
48875;SDS011;34689;51.644;5.618;2023-04-03T16:10:12;1.05;;;0.30;;
48875;SDS011;34689;51.644;5.618;2023-04-03T16:12:39;1.38;;;0.63;;
48875;SDS011;34689;51.644;5.618;2023-04-03T16:15:05;0.30;;;0.30;;
48875;SDS011;34689;51.644;5.618;2023-04-03T16:17:32;4.20;;;0.47;;
48875;SDS011;34689;51.644;5.618;2023-04-03T16:20:00;0.93;;;0.40;;
48875;SDS011;34689;51.644;5.618;2023-04-03T16:22:29;1.58;;;0.65;;
48875;SDS011;34689;51.644;5.618;2023-04-03T16:24:55;1.42;;;0.55;;
48875;SDS011;34689;51.644;5.618;2023-04-03T16:27:26;1.63;;;0.45;;
48875;SDS011;34689;51.644;5.618;2023-04-03T16:29:54;0.80;;;0.38;;
48875;SDS011;34689;51.644;5.618;2023-04-03T16:32:20;1.30;;;0.38;;
48875;SDS011;34689;51.644;5.618;2023-04-03T16:34:47;1.55;;;0.40;;
48875;SDS011;34689;51.644;5.618;2023-04-03T16:37:13;1.17;;;0.30;;
48875;SDS011;34689;51.644;5.618;2023-04-03T16:39:40;1.00;;;0.50;;
48875;SDS011;34689;51.644;5.618;2023-04-03T16:42:05;2.60;;;0.40;;
48875;SDS011;34689;51.644;5.618;2023-04-03T16:44:35;0.77;;;0.50;;